Time;durP1;ratioP1;P1;durP2;ratioP2;P2;SDS_P1;SDS_P2;PMS_P1;PMS_P2;Temp;Humidity;BMP_temperature;BMP_pressure;BME280_temperature;BME280_humidity;BME280_pressure;Samples;Min_cycle;Max_cycle;Signal;HPM_P1;HPM_P2
2023/03/25 00:00:20;;;;;;;14.82;9.05;;;8.70;99.90;;;;;;4988299;28;20048;-63
2023/03/25 00:02:46;;;;;;;;;;;8.60;99.90;;;;;;4988526;28;20632;-63
2023/03/25 00:05:13;;;;;;;17.48;10.13;;;8.60;99.90;;;;;;4988411;28;19924;-63
2023/03/25 00:07:43;;;;;;;18.63;10.25;;;8.60;99.90;;;;;;4988071;28;20030;-64
2023/03/25 00:10:11;;;;;;;21.35;10.68;;;8.50;99.90;;;;;;4988126;28;20042;-63
2023/03/25 00:12:37;;;;;;;20.42;10.80;;;8.50;99.90;;;;;;4993774;28;20034;-65
2023/03/25 00:15:04;;;;;;;17.40;11.43;;;8.40;99.90;;;;;;5007318;28;20033;-63
2023/03/25 00:17:30;;;;;;;15.70;9.77;;;8.40;99.90;;;;;;5007432;28;20034;-63
2023/03/25 00:19:59;;;;;;;22.30;11.90;;;8.40;99.90;;;;;;4990943;28;20037;-65
2023/03/25 00:22:25;;;;;;;13.45;9.00;;;8.40;99.90;;;;;;4986261;28;20054;-63
2023/03/25 00:24:51;;;;;;;;;;;8.40;99.90;;;;;;4988049;28;20039;-64
2023/03/25 00:27:18;;;;;;;16.02;8.23;;;8.40;99.90;;;;;;4987468;28;19921;-63
2023/03/25 00:29:44;;;;;;;16.25;9.23;;;8.30;99.90;;;;;;4988501;28;20030;-63
2023/03/25 00:32:12;;;;;;;15.43;8.65;;;8.30;99.90;;;;;;4988169;28;20498;-63
2023/03/25 00:34:46;;;;;;;17.48;8.48;;;8.30;99.90;;;;;;4987915;28;20038;-63
2023/03/25 00:37:12;;;;;;;16.58;8.48;;;8.30;99.90;;;;;;4987623;28;20062;-63
2023/03/25 00:39:38;;;;;;;;;;;8.20;99.90;;;;;;4988381;28;20027;-65
2023/03/25 00:42:04;;;;;;;15.65;6.53;;;8.20;99.90;;;;;;4988124;28;20437;-63
2023/03/25 00:44:30;;;;;;;12.38;7.28;;;8.20;99.90;;;;;;4991617;28;20059;-65
2023/03/25 00:46:55;;;;;;;12.07;6.60;;;8.10;99.90;;;;;;4991782;28;20060;-63
2023/03/25 00:49:23;;;;;;;14.40;6.80;;;8.10;99.90;;;;;;4991366;28;20038;-63
2023/03/25 00:51:50;;;;;;;12.20;6.30;;;8.10;99.90;;;;;;4991644;28;20045;-65
2023/03/25 00:54:17;;;;;;;11.65;7.05;;;8.20;99.90;;;;;;4991772;28;20636;-64
2023/03/25 00:56:43;;;;;;;9.35;6.10;;;8.20;99.90;;;;;;4991451;28;20045;-65
2023/03/25 00:59:09;;;;;;;12.10;6.07;;;8.00;99.90;;;;;;4991445;28;20033;-65
2023/03/25 01:01:38;;;;;;;12.25;6.07;;;8.10;99.90;;;;;;4991609;28;20037;-65
2023/03/25 01:04:10;;;;;;;12.68;4.70;;;8.20;99.90;;;;;;4990124;28;20053;-64
2023/03/25 01:06:42;;;;;;;12.02;4.93;;;8.30;99.90;;;;;;4991848;28;20097;-66
2023/03/25 01:09:09;;;;;;;14.95;5.47;;;8.30;99.90;;;;;;4991209;28;20043;-65
2023/03/25 01:11:37;;;;;;;14.98;5.90;;;8.30;99.90;;;;;;4991760;28;20072;-64
2023/03/25 01:14:11;;;;;;;13.45;5.88;;;8.30;99.90;;;;;;4991442;28;20035;-65
2023/03/25 01:16:38;;;;;;;13.02;7.20;;;8.20;99.90;;;;;;4991531;28;20034;-65
2023/03/25 01:19:04;;;;;;;;;;;8.20;99.90;;;;;;4992243;28;20031;-66
2023/03/25 01:21:32;;;;;;;16.20;6.82;;;8.20;99.90;;;;;;4991824;28;20032;-66
2023/03/25 01:23:58;;;;;;;13.00;6.05;;;8.20;99.90;;;;;;4991424;28;20042;-63
2023/03/25 01:26:24;;;;;;;11.77;5.90;;;8.20;99.90;;;;;;4990910;28;20498;-65
2023/03/25 01:28:49;;;;;;;11.00;5.70;;;8.10;99.90;;;;;;4990830;28;20505;-66
2023/03/25 01:31:15;;;;;;;8.27;5.10;;;8.10;99.90;;;;;;4990716;28;20100;-65
2023/03/25 01:33:41;;;;;;;8.83;4.33;;;8.10;99.90;;;;;;4990618;28;20478;-66
2023/03/25 01:36:11;;;;;;;8.10;4.67;;;8.30;99.90;;;;;;4990865;28;20277;-66
2023/03/25 01:38:38;;;;;;;11.07;4.40;;;8.40;99.90;;;;;;4990478;28;20110;-65
2023/03/25 01:41:05;;;;;;;9.15;3.47;;;8.40;99.90;;;;;;4990168;28;20061;-64
2023/03/25 01:43:32;;;;;;;8.57;3.85;;;8.50;99.90;;;;;;4990895;28;20106;-65
2023/03/25 01:45:58;;;;;;;6.80;3.60;;;8.60;99.90;;;;;;4990632;28;20054;-65
2023/03/25 01:48:40;;;;;;;15.52;3.30;;;8.60;99.90;;;;;;4990236;28;20622;-66
2023/03/25 01:51:11;;;;;;;9.23;5.15;;;8.60;99.90;;;;;;4990216;28;20046;-63
2023/03/25 01:53:37;;;;;;;9.10;6.20;;;8.50;99.90;;;;;;4989754;28;20034;-64
2023/03/25 01:56:05;;;;;;;13.98;5.88;;;8.40;99.90;;;;;;4990103;28;20030;-65
2023/03/25 01:58:33;;;;;;;12.02;5.88;;;8.10;99.90;;;;;;5009341;28;20477;-64
2023/03/25 02:01:00;;;;;;;10.45;6.22;;;8.00;99.90;;;;;;4997003;28;20048;-65
2023/03/25 02:03:27;;;;;;;9.95;6.45;;;8.00;99.90;;;;;;4990333;28;20532;-64
2023/03/25 02:05:59;;;;;;;11.60;6.30;;;7.90;99.90;;;;;;4989979;28;20042;-64
2023/03/25 02:08:25;;;;;;;14.73;6.65;;;7.90;99.90;;;;;;4990160;28;20033;-63
2023/03/25 02:10:51;;;;;;;14.50;6.25;;;7.90;99.90;;;;;;4990335;28;20026;-63
2023/03/25 02:13:18;;;;;;;11.30;6.65;;;7.90;99.90;;;;;;4990291;28;20047;-63
2023/03/25 02:16:05;;;;;;;11.40;6.60;;;8.00;99.90;;;;;;4989509;28;20034;-64
2023/03/25 02:18:52;;;;;;;14.32;7.28;;;8.00;99.90;;;;;;4990163;28;20038;-63
2023/03/25 02:21:49;;;;;;;11.88;6.63;;;7.70;99.90;;;;;;4990128;28;20034;-63
2023/03/25 02:24:34;;;;;;;15.38;6.40;;;7.90;99.90;;;;;;4989368;28;20034;-63
2023/03/25 02:27:32;;;;;;;10.57;6.40;;;8.00;99.90;;;;;;4990131;28;20041;-63
2023/03/25 02:30:13;;;;;;;14.30;6.90;;;8.00;99.90;;;;;;4989885;28;20105;-63
2023/03/25 02:32:38;;;;;;;11.13;6.32;;;7.90;99.90;;;;;;4989484;28;20153;-63
2023/03/25 02:35:28;;;;;;;16.40;6.40;;;8.00;99.90;;;;;;4989802;28;20485;-64
2023/03/25 02:38:23;;;;;;;10.35;5.78;;;8.10;99.90;;;;;;4989467;28;20038;-63
2023/03/25 02:41:13;;;;;;;12.45;4.90;;;8.10;99.90;;;;;;4990375;28;20038;-63
2023/03/25 02:44:01;;;;;;;10.68;3.80;;;8.00;99.90;;;;;;5008683;28;20043;-64
2023/03/25 02:46:30;;;;;;;9.82;3.58;;;8.20;99.90;;;;;;4990223;28;20029;-66
2023/03/25 02:49:01;;;;;;;12.23;3.13;;;8.30;99.90;;;;;;4972662;28;20034;-63
2023/03/25 02:51:34;;;;;;;8.80;3.20;;;8.30;99.90;;;;;;4970487;28;20031;-66
2023/03/25 02:54:06;;;;;;;7.72;2.67;;;8.50;99.90;;;;;;4970222;28;20026;-63
2023/03/25 02:56:32;;;;;;;8.75;2.50;;;8.40;99.90;;;;;;4968963;28;20034;-64
2023/03/25 02:58:59;;;;;;;10.57;2.42;;;8.50;99.90;;;;;;4969788;28;20023;-65
2023/03/25 03:01:25;;;;;;;6.25;2.35;;;8.50;99.90;;;;;;4969676;28;20027;-65
2023/03/25 03:03:55;;;;;;;6.82;2.72;;;8.60;99.90;;;;;;4969382;28;20049;-65
2023/03/25 03:06:23;;;;;;;8.10;3.15;;;8.50;99.90;;;;;;4969081;28;20070;-63
2023/03/25 03:08:48;;;;;;;11.27;3.67;;;8.50;99.90;;;;;;4969481;28;20035;-65
2023/03/25 03:11:20;;;;;;;13.53;4.20;;;8.50;99.90;;;;;;4969370;28;20518;-64
2023/03/25 03:14:07;;;;;;;12.48;3.75;;;8.50;99.90;;;;;;4969005;28;20026;-64
2023/03/25 03:16:47;;;;;;;13.93;2.75;;;8.30;99.90;;;;;;4982677;28;20101;-65
2023/03/25 03:19:55;;;;;;;9.88;3.55;;;8.30;99.90;;;;;;4988351;28;20045;-65
2023/03/25 03:22:42;;;;;;;7.82;2.53;;;8.30;99.90;;;;;;4968824;28;20096;-63
2023/03/25 03:25:33;;;;;;;5.17;2.30;;;8.20;99.90;;;;;;4988232;28;20526;-64
2023/03/25 03:28:29;;;;;;;17.42;4.15;;;8.20;99.90;;;;;;4988533;28;20262;-64
2023/03/25 03:31:05;;;;;;;10.40;4.03;;;8.20;99.90;;;;;;4988359;28;20036;-65
2023/03/25 03:33:49;;;;;;;10.05;3.28;;;8.20;99.90;;;;;;4988129;28;20022;-65
2023/03/25 03:36:19;;;;;;;5.82;3.05;;;8.20;99.90;;;;;;4988529;28;20037;-66
2023/03/25 03:38:58;;;;;;;8.25;2.90;;;8.10;99.90;;;;;;4988147;28;20030;-66
2023/03/25 03:41:26;;;;;;;9.32;2.80;;;8.10;99.90;;;;;;4988260;28;20042;-64
2023/03/25 03:44:01;;;;;;;9.07;5.80;;;8.10;99.90;;;;;;4988344;28;20790;-66
2023/03/25 03:46:37;;;;;;;12.30;6.28;;;8.00;99.90;;;;;;4988073;28;20157;-65
2023/03/25 03:49:07;;;;;;;9.55;5.47;;;7.90;99.90;;;;;;4988471;28;20023;-64
2023/03/25 03:51:39;;;;;;;11.35;4.85;;;7.70;99.90;;;;;;4988513;28;20058;-66
2023/03/25 03:54:13;;;;;;;8.90;4.30;;;7.80;99.90;;;;;;4988454;28;20030;-66
2023/03/25 03:56:57;;;;;;;9.35;2.97;;;7.90;99.90;;;;;;4988351;28;20034;-65
2023/03/25 03:59:52;;;;;;;11.25;3.55;;;8.10;99.90;;;;;;4986213;28;20030;-63
2023/03/25 04:02:37;;;;;;;6.57;2.42;;;8.20;99.90;;;;;;4988091;28;20130;-63
2023/03/25 04:05:04;;;;;;;10.13;1.70;;;8.20;99.90;;;;;;4988693;28;20044;-64
2023/03/25 04:08:02;;;;;;;5.53;2.00;;;8.50;99.90;;;;;;4988027;28;20030;-63
2023/03/25 04:10:33;;;;;;;7.93;2.17;;;8.60;99.90;;;;;;4986165;28;20391;-63
2023/03/25 04:13:01;;;;;;;6.78;2.08;;;8.60;99.90;;;;;;4988197;28;20030;-63
2023/03/25 04:15:26;;;;;;;10.55;2.13;;;8.70;99.90;;;;;;4987513;28;20034;-64
2023/03/25 04:17:52;;;;;;;7.33;1.73;;;8.80;99.90;;;;;;4985478;28;20031;-64
2023/03/25 04:20:24;;;;;;;9.43;2.20;;;8.80;99.90;;;;;;4989307;28;20089;-65
2023/03/25 04:22:51;;;;;;;9.77;2.10;;;8.80;99.90;;;;;;4989611;28;20457;-65
2023/03/25 04:25:20;;;;;;;7.75;1.70;;;8.90;99.90;;;;;;4989883;28;20463;-64
2023/03/25 04:27:47;;;;;;;7.32;2.13;;;8.90;99.90;;;;;;4990033;28;20030;-64
2023/03/25 04:30:17;;;;;;;5.43;2.05;;;8.80;99.90;;;;;;4990472;28;20038;-64
2023/03/25 04:32:46;;;;;;;9.63;1.92;;;8.90;99.90;;;;;;4989076;28;20022;-65
2023/03/25 04:35:17;;;;;;;5.90;3.03;;;8.90;99.90;;;;;;5003505;28;20105;-64
2023/03/25 04:37:47;;;;;;;9.02;2.05;;;8.90;99.90;;;;;;4989534;28;20042;-63
2023/03/25 04:40:17;;;;;;;8.57;2.08;;;8.90;99.90;;;;;;4989461;28;20018;-63
2023/03/25 04:42:45;;;;;;;6.93;1.92;;;8.80;99.90;;;;;;4990038;28;20459;-64
2023/03/25 04:45:17;;;;;;;6.07;1.90;;;8.80;99.90;;;;;;4989447;28;20085;-63
2023/03/25 04:47:47;;;;;;;5.72;1.60;;;9.00;99.90;;;;;;4988443;28;20026;-63
2023/03/25 04:50:29;;;;;;;5.32;2.17;;;9.00;99.90;;;;;;4989449;28;20058;-64
2023/03/25 04:52:59;;;;;;;6.07;2.05;;;8.90;99.90;;;;;;4989806;28;20565;-66
2023/03/25 04:55:25;;;;;;;6.93;1.95;;;8.90;99.90;;;;;;4989079;28;20120;-63
2023/03/25 04:57:52;;;;;;;6.65;1.95;;;9.00;99.90;;;;;;4988359;28;20023;-66
2023/03/25 05:00:23;;;;;;;4.47;1.52;;;9.00;99.90;;;;;;4989350;28;20061;-67
2023/03/25 05:02:52;;;;;;;8.30;1.73;;;9.00;99.90;;;;;;4989651;28;20069;-64
2023/03/25 05:05:21;;;;;;;7.50;2.50;;;8.90;99.90;;;;;;4989311;28;20046;-65
2023/03/25 05:07:49;;;;;;;5.22;1.83;;;9.00;99.90;;;;;;4988496;28;20031;-63
2023/03/25 05:10:22;;;;;;;8.70;1.95;;;9.00;99.90;;;;;;4988795;28;20101;-65
2023/03/25 05:12:48;;;;;;;4.10;1.90;;;9.10;99.90;;;;;;4988876;28;20031;-64
2023/03/25 05:15:16;;;;;;;8.40;1.80;;;9.10;99.90;;;;;;4988872;28;20456;-64
2023/03/25 05:17:42;;;;;;;5.43;2.05;;;9.00;99.90;;;;;;4989247;28;20057;-66
2023/03/25 05:20:09;;;;;;;6.40;2.08;;;9.00;99.90;;;;;;4990125;28;20030;-66
2023/03/25 05:22:36;;;;;;;;;;;9.00;99.90;;;;;;4989555;28;20022;-64
2023/03/25 05:25:05;;;;;;;5.85;2.00;;;8.90;99.90;;;;;;4989293;28;19922;-66
2023/03/25 05:27:32;;;;;;;8.27;1.60;;;9.10;99.90;;;;;;4988644;28;20107;-64
2023/03/25 05:29:57;;;;;;;9.02;2.00;;;9.10;99.90;;;;;;4988572;28;20080;-64
2023/03/25 05:32:24;;;;;;;7.53;1.70;;;9.00;99.90;;;;;;4988567;28;20497;-64
2023/03/25 05:34:52;;;;;;;7.85;1.92;;;8.90;99.90;;;;;;4988294;28;20058;-64
2023/03/25 05:37:18;;;;;;;3.78;1.75;;;8.90;99.90;;;;;;4988582;28;20057;-66
2023/03/25 05:39:44;;;;;;;4.43;1.92;;;8.80;99.90;;;;;;4988398;28;20045;-65
2023/03/25 05:42:10;;;;;;;6.97;1.90;;;8.80;99.90;;;;;;4989114;28;20030;-65
2023/03/25 05:44:37;;;;;;;10.57;1.52;;;8.90;99.90;;;;;;4988557;28;20057;-65
2023/03/25 05:47:03;;;;;;;9.73;2.47;;;9.00;99.90;;;;;;4989418;28;20038;-65
2023/03/25 05:49:29;;;;;;;7.07;1.85;;;9.10;99.90;;;;;;4988073;28;20042;-64
2023/03/25 05:51:55;;;;;;;6.95;1.77;;;9.10;99.90;;;;;;4988701;28;20056;-65
2023/03/25 05:54:23;;;;;;;12.25;1.98;;;9.10;99.90;;;;;;4988286;28;20037;-66
2023/03/25 05:56:50;;;;;;;11.15;2.13;;;9.20;99.90;;;;;;4987623;28;20031;-65
2023/03/25 05:59:16;;;;;;;;;;;9.30;99.90;;;;;;4989275;28;20097;-64
2023/03/25 06:01:44;;;;;;;7.22;1.40;;;9.40;99.90;;;;;;4985812;28;19906;-66
2023/03/25 06:04:11;;;;;;;5.82;2.53;;;9.40;99.90;;;;;;4988273;28;20045;-67
2023/03/25 06:06:38;;;;;;;8.45;1.58;;;9.30;99.90;;;;;;4988055;28;20037;-67
2023/03/25 06:09:04;;;;;;;;;;;9.30;99.90;;;;;;4988736;28;20054;-66
2023/03/25 06:11:29;;;;;;;4.97;1.73;;;9.30;99.90;;;;;;4986161;28;19972;-66
2023/03/25 06:13:55;;;;;;;8.37;1.87;;;9.20;99.90;;;;;;4987815;28;20470;-66
2023/03/25 06:16:28;;;;;;;6.97;1.52;;;9.10;99.90;;;;;;4986762;28;20121;-63
2023/03/25 06:18:58;;;;;;;8.82;2.00;;;9.10;99.90;;;;;;4988018;28;20109;-63
2023/03/25 06:21:26;;;;;;;8.00;2.67;;;9.30;99.90;;;;;;4988167;28;20218;-63
2023/03/25 06:23:52;;;;;;;7.22;1.98;;;9.40;99.90;;;;;;4987677;28;20029;-65
2023/03/25 06:26:20;;;;;;;6.45;1.83;;;9.60;99.90;;;;;;4987701;28;20414;-64
2023/03/25 06:28:46;;;;;;;5.78;1.45;;;10.60;99.90;;;;;;4987862;28;20498;-63
2023/03/25 06:31:21;;;;;;;5.93;1.98;;;10.50;99.90;;;;;;4987522;28;20037;-64
2023/03/25 06:33:48;;;;;;;11.73;1.90;;;10.30;99.90;;;;;;4982775;28;20106;-64
2023/03/25 06:36:19;;;;;;;10.55;2.50;;;10.30;99.90;;;;;;4988873;28;20042;-64
2023/03/25 06:38:46;;;;;;;4.05;1.45;;;10.30;99.90;;;;;;4985504;28;20121;-63
2023/03/25 06:41:13;;;;;;;4.97;1.50;;;10.30;99.90;;;;;;4987570;28;20018;-63
2023/03/25 06:43:39;;;;;;;4.85;1.50;;;10.30;99.90;;;;;;4984090;28;20069;-64
2023/03/25 06:46:06;;;;;;;3.85;1.25;;;10.30;99.90;;;;;;4987891;28;20065;-63
2023/03/25 06:48:31;;;;;;;6.25;1.60;;;10.30;99.90;;;;;;4981682;28;20034;-63
2023/03/25 06:50:57;;;;;;;4.97;1.33;;;10.30;99.90;;;;;;4982843;28;20037;-64
2023/03/25 06:53:22;;;;;;;5.40;1.77;;;10.30;99.90;;;;;;4981502;28;20031;-63
2023/03/25 06:55:48;;;;;;;9.23;1.63;;;10.40;99.90;;;;;;4981690;28;20109;-66
2023/03/25 06:58:14;;;;;;;9.73;2.87;;;10.40;99.90;;;;;;4984434;28;20030;-65
2023/03/25 07:00:39;;;;;;;5.67;1.50;;;10.50;99.90;;;;;;4987621;28;20022;-63
2023/03/25 07:03:05;;;;;;;5.73;1.77;;;10.50;99.90;;;;;;4987917;28;20027;-64
2023/03/25 07:05:30;;;;;;;8.87;1.73;;;10.60;99.90;;;;;;4985862;28;20107;-68
2023/03/25 07:07:57;;;;;;;6.63;1.43;;;10.50;99.90;;;;;;4984357;28;20110;-64
2023/03/25 07:10:24;;;;;;;9.35;2.00;;;10.50;99.90;;;;;;4986105;28;20030;-68
2023/03/25 07:12:49;;;;;;;7.15;2.05;;;10.60;99.90;;;;;;4985527;28;20038;-66
2023/03/25 07:15:15;;;;;;;6.33;1.90;;;10.60;99.90;;;;;;4986832;28;20426;-63
2023/03/25 07:17:41;;;;;;;8.43;1.77;;;10.70;99.90;;;;;;4985679;28;20545;-63
2023/03/25 07:20:08;;;;;;;11.15;1.75;;;10.80;99.90;;;;;;4987903;28;20045;-62
2023/03/25 07:22:34;;;;;;;5.97;1.55;;;10.80;99.90;;;;;;4984995;28;20077;-62
2023/03/25 07:25:00;;;;;;;7.63;1.40;;;10.90;99.90;;;;;;4986419;28;20449;-62
2023/03/25 07:27:25;;;;;;;7.03;1.70;;;11.00;99.90;;;;;;4985665;28;20031;-63
2023/03/25 07:29:51;;;;;;;4.33;1.37;;;11.10;99.90;;;;;;4984741;28;20057;-64
2023/03/25 07:32:17;;;;;;;8.73;1.87;;;11.30;99.90;;;;;;4983344;28;20056;-65
2023/03/25 07:34:43;;;;;;;5.38;1.40;;;11.40;99.90;;;;;;4985064;28;20022;-64
2023/03/25 07:37:09;;;;;;;6.78;1.98;;;11.40;99.90;;;;;;4985676;28;20069;-65
2023/03/25 07:39:34;;;;;;;6.60;2.07;;;11.60;99.90;;;;;;4983718;28;20039;-66
2023/03/25 07:42:00;;;;;;;7.57;1.90;;;11.60;99.90;;;;;;4985734;28;20126;-63
2023/03/25 07:44:26;;;;;;;9.10;2.17;;;11.70;99.60;;;;;;4985346;28;20038;-65
2023/03/25 07:46:51;;;;;;;3.93;1.17;;;11.90;99.10;;;;;;4984071;28;20026;-63
2023/03/25 07:49:17;;;;;;;13.80;2.03;;;11.80;98.40;;;;;;4980683;28;20592;-62
2023/03/25 07:51:44;;;;;;;6.50;1.58;;;11.90;98.30;;;;;;4981178;28;20058;-63
2023/03/25 07:54:10;;;;;;;6.18;1.98;;;12.00;98.30;;;;;;4982539;28;20438;-64
2023/03/25 07:56:36;;;;;;;4.75;1.70;;;12.00;98.50;;;;;;4980504;28;20062;-64
2023/03/25 07:59:03;;;;;;;7.35;2.28;;;12.40;98.30;;;;;;4985655;28;20034;-66
2023/03/25 08:01:28;;;;;;;6.75;1.45;;;13.00;98.20;;;;;;4985373;28;20030;-67
2023/03/25 08:03:54;;;;;;;5.70;1.63;;;13.40;96.50;;;;;;4985891;28;20034;-66
2023/03/25 08:06:19;;;;;;;6.70;1.90;;;13.50;96.10;;;;;;4984408;28;20042;-66
2023/03/25 08:08:45;;;;;;;9.13;2.93;;;13.30;95.70;;;;;;4984141;28;20076;-65
2023/03/25 08:11:11;;;;;;;9.83;2.83;;;13.30;95.70;;;;;;4985869;28;20116;-67
2023/03/25 08:13:37;;;;;;;6.90;1.52;;;13.30;95.70;;;;;;4985444;28;20054;-67
2023/03/25 08:16:09;;;;;;;3.60;1.30;;;13.30;96.20;;;;;;4986000;28;20037;-65
2023/03/25 08:18:35;;;;;;;8.93;1.75;;;13.30;96.50;;;;;;4985532;28;20064;-67
2023/03/25 08:21:02;;;;;;;8.95;1.63;;;13.20;96.50;;;;;;4985859;28;20081;-65
2023/03/25 08:23:27;;;;;;;7.13;1.55;;;13.00;95.90;;;;;;4986225;28;20126;-65
2023/03/25 08:25:53;;;;;;;13.40;3.40;;;12.90;97.00;;;;;;5017483;28;20132;-66
2023/03/25 08:28:23;;;;;;;2.88;1.60;;;12.80;97.30;;;;;;4980556;28;20041;-65
2023/03/25 08:30:53;;;;;;;5.80;1.58;;;12.80;98.00;;;;;;4982576;28;20039;-66
2023/03/25 08:33:20;;;;;;;3.45;1.17;;;12.80;96.30;;;;;;4986629;28;20034;-67
2023/03/25 08:35:46;;;;;;;6.55;1.30;;;12.80;97.50;;;;;;4984697;28;20101;-64
2023/03/25 08:38:12;;;;;;;6.45;1.55;;;12.90;97.40;;;;;;4984294;28;20031;-66
2023/03/25 08:40:41;;;;;;;10.47;1.93;;;13.00;96.30;;;;;;5017724;28;20045;-68
2023/03/25 08:43:07;;;;;;;6.85;1.52;;;13.10;97.50;;;;;;4985516;28;20726;-64
2023/03/25 08:45:34;;;;;;;4.33;1.27;;;13.20;96.80;;;;;;4983762;28;20376;-64
2023/03/25 08:48:00;;;;;;;5.32;1.27;;;13.30;97.30;;;;;;4985702;28;20026;-64
2023/03/25 08:50:26;;;;;;;10.02;2.13;;;13.30;96.80;;;;;;4984204;28;20480;-66
2023/03/25 08:52:53;;;;;;;3.50;0.88;;;13.30;95.70;;;;;;4985901;28;20481;-65
2023/03/25 08:55:19;;;;;;;5.45;1.73;;;13.30;95.00;;;;;;4984391;28;20034;-64
2023/03/25 08:57:45;;;;;;;8.05;1.52;;;13.40;96.10;;;;;;4986461;28;20077;-64
2023/03/25 09:00:14;;;;;;;5.53;1.10;;;13.40;94.50;;;;;;4986924;28;20470;-65
2023/03/25 09:02:41;;;;;;;3.90;1.50;;;13.60;95.90;;;;;;4986155;28;20077;-66
2023/03/25 09:05:09;;;;;;;5.50;1.73;;;13.60;94.90;;;;;;4988969;28;20046;-64
2023/03/25 09:07:35;;;;;;;6.85;2.05;;;13.60;93.40;;;;;;4989269;28;21155;-66
2023/03/25 09:10:01;;;;;;;5.38;1.35;;;13.60;94.60;;;;;;4987681;28;20153;-65
2023/03/25 09:12:27;;;;;;;4.30;1.33;;;13.60;93.90;;;;;;4984968;28;20033;-67
2023/03/25 09:14:52;;;;;;;3.67;1.53;;;13.60;94.90;;;;;;4988826;28;20033;-67
2023/03/25 09:17:19;;;;;;;8.70;1.20;;;13.60;95.40;;;;;;4984131;28;20041;-65
2023/03/25 09:19:45;;;;;;;2.60;1.20;;;13.60;93.90;;;;;;4982825;28;20561;-66
2023/03/25 09:22:10;;;;;;;9.45;2.97;;;13.70;94.70;;;;;;4985693;28;20034;-66
2023/03/25 09:24:37;;;;;;;3.80;1.10;;;13.60;95.00;;;;;;4987897;28;20038;-64
2023/03/25 09:27:03;;;;;;;4.53;1.20;;;13.60;94.90;;;;;;4988547;28;20498;-65
2023/03/25 09:29:28;;;;;;;1.92;1.00;;;13.60;94.50;;;;;;4985487;28;20081;-65
2023/03/25 09:31:57;;;;;;;6.45;1.83;;;13.50;94.00;;;;;;4986197;28;20053;-67
2023/03/25 09:34:23;;;;;;;5.78;1.33;;;13.50;93.60;;;;;;4987339;28;20125;-65
2023/03/25 09:36:48;;;;;;;4.45;2.00;;;13.50;93.50;;;;;;4987423;28;20058;-66
2023/03/25 09:39:14;;;;;;;5.37;1.30;;;13.50;94.70;;;;;;4986327;28;20469;-65
2023/03/25 09:42:18;;;;;;;2.65;1.13;;;13.50;95.10;;;;;;4987874;28;20036;-65
2023/03/25 09:44:57;;;;;;;3.45;1.00;;;13.50;93.30;;;;;;4985638;28;20042;-67
2023/03/25 09:47:24;;;;;;;7.90;1.65;;;13.40;92.80;;;;;;4985494;28;20026;-68
2023/03/25 09:49:54;;;;;;;6.18;1.60;;;13.50;94.30;;;;;;4987772;28;20081;-67
2023/03/25 09:52:26;;;;;;;2.95;1.10;;;13.50;93.40;;;;;;4988301;28;20026;-69
2023/03/25 09:55:00;;;;;;;5.72;1.40;;;13.50;94.10;;;;;;4988523;28;20030;-68
2023/03/25 09:57:48;;;;;;;7.10;1.67;;;13.50;96.20;;;;;;4987945;28;20091;-66
2023/03/25 10:00:22;;;;;;;2.88;1.10;;;13.60;95.40;;;;;;4986031;28;20054;-68
2023/03/25 10:03:08;;;;;;;4.13;1.00;;;13.60;94.70;;;;;;4988821;28;20069;-69
2023/03/25 10:05:49;;;;;;;5.97;1.27;;;13.60;93.90;;;;;;5002984;28;20121;-69
2023/03/25 10:08:31;;;;;;;4.85;1.00;;;13.70;93.30;;;;;;4984589;28;20061;-69
2023/03/25 10:11:06;;;;;;;6.15;1.83;;;13.90;93.50;;;;;;4983288;28;20514;-68
2023/03/25 10:13:50;;;;;;;6.55;1.33;;;13.90;93.80;;;;;;4980094;28;20065;-67
2023/03/25 10:16:49;;;;;;;4.07;1.02;;;13.90;92.90;;;;;;4982796;28;20085;-65
2023/03/25 10:19:15;;;;;;;9.32;1.50;;;13.90;92.70;;;;;;4982614;28;20037;-66
2023/03/25 10:21:59;;;;;;;3.47;1.37;;;13.70;92.60;;;;;;4982731;28;20026;-66
2023/03/25 10:24:35;;;;;;;6.03;1.60;;;13.60;92.60;;;;;;4982241;28;20045;-67
2023/03/25 10:27:19;;;;;;;4.50;0.90;;;13.60;92.30;;;;;;4983170;28;20109;-68
2023/03/25 10:29:59;;;;;;;7.10;1.33;;;13.60;91.10;;;;;;4984238;28;20038;-72
2023/03/25 10:32:37;;;;;;;3.40;1.15;;;13.50;93.00;;;;;;4986510;28;20031;-70
2023/03/25 10:35:09;;;;;;;6.05;1.85;;;13.60;92.90;;;;;;4987339;28;20463;-67
2023/03/25 10:37:40;;;;;;;7.03;1.38;;;13.70;92.10;;;;;;4985737;28;20066;-68
2023/03/25 10:40:32;;;;;;;5.88;1.10;;;14.10;92.00;;;;;;4983075;28;20525;-66
2023/03/25 10:43:22;;;;;;;4.75;1.30;;;14.50;91.80;;;;;;4985412;28;20509;-67
2023/03/25 10:45:50;;;;;;;4.55;1.45;;;15.20;94.00;;;;;;4984137;28;20120;-66
2023/03/25 10:48:21;;;;;;;9.52;1.73;;;15.80;93.50;;;;;;4985096;28;20113;-67
2023/03/25 10:50:51;;;;;;;4.95;1.17;;;15.90;91.80;;;;;;4985563;28;20037;-66
2023/03/25 10:53:23;;;;;;;5.97;1.30;;;16.10;91.20;;;;;;4984925;28;20682;-67
2023/03/25 10:55:55;;;;;;;5.60;1.27;;;16.20;87.80;;;;;;4983227;28;20033;-67
2023/03/25 10:58:22;;;;;;;8.80;2.13;;;16.10;88.60;;;;;;4999345;28;20030;-65
2023/03/25 12:56:12;;;;;;;4.10;1.10;;;16.40;83.00;;;;;;5098801;27;20396;-66
2023/03/25 12:58:55;;;;;;;3.63;1.17;;;16.30;83.00;;;;;;5097850;28;20601;-69
2023/03/25 13:01:37;;;;;;;3.63;1.13;;;16.30;85.50;;;;;;5095103;28;20886;-66
2023/03/25 13:04:42;;;;;;;7.28;1.25;;;16.50;85.30;;;;;;5097406;28;20035;-68
2023/03/25 13:07:09;;;;;;;232.15;23.80;;;16.60;91.60;;;;;;5086979;28;20473;-69
2023/03/25 13:10:02;;;;;;;824.45;457.50;;;16.80;95.60;;;;;;5095521;28;20033;-76
2023/03/25 13:12:39;;;;;;;87.53;42.95;;;16.60;90.50;;;;;;5097293;28;20052;-72
2023/03/25 13:15:14;;;;;;;;;;;16.60;92.20;;;;;;5099102;28;20495;-68
2023/03/25 13:18:06;;;;;;;4.90;3.13;;;16.70;94.80;;;;;;5109706;28;20034;-71
2023/03/25 13:20:48;;;;;;;49.20;7.10;;;16.50;86.20;;;;;;5077028;28;20223;-74
2023/03/25 13:23:20;;;;;;;112.80;15.82;;;16.40;90.60;;;;;;5096653;28;20119;-68
2023/03/25 13:26:07;;;;;;;216.85;63.38;;;16.80;95.70;;;;;;5097061;28;20032;-68
2023/03/25 13:28:58;;;;;;;251.23;153.25;;;16.90;88.00;;;;;;5095192;28;20269;-68
2023/03/25 13:31:45;;;;;;;23.55;6.35;;;16.90;97.10;;;;;;5091205;28;20036;-68
2023/03/25 13:34:21;;;;;;;5.67;1.10;;;16.70;90.70;;;;;;5098737;28;20024;-71
2023/03/25 13:36:56;;;;;;;5.68;1.52;;;16.80;87.30;;;;;;5095042;28;20494;-69
2023/03/25 13:39:37;;;;;;;4.68;1.15;;;16.80;84.70;;;;;;5095204;28;20027;-68
2023/03/25 13:42:14;;;;;;;3.38;1.05;;;17.00;88.10;;;;;;5099480;28;20031;-70
2023/03/25 13:44:45;;;;;;;3.78;1.13;;;16.90;85.20;;;;;;5097471;28;20081;-73
2023/03/25 13:47:11;;;;;;;6.65;1.10;;;16.80;86.10;;;;;;5094556;28;20032;-69
2023/03/25 13:49:55;;;;;;;4.63;1.17;;;16.60;84.20;;;;;;5096276;28;20024;-70
2023/03/25 13:52:22;;;;;;;3.78;1.08;;;16.40;82.50;;;;;;5098136;28;20033;-71
2023/03/25 13:54:55;;;;;;;5.45;1.20;;;16.70;83.50;;;;;;5095568;28;20074;-74
2023/03/25 13:57:27;;;;;;;4.90;1.15;;;16.80;86.30;;;;;;5097795;28;20024;-71
2023/03/25 14:00:08;;;;;;;1.95;1.00;;;16.70;83.30;;;;;;5097003;28;20031;-71
2023/03/25 14:03:04;;;;;;;5.55;1.35;;;16.60;80.00;;;;;;5115109;28;20023;-71
2023/03/25 14:05:38;;;;;;;6.82;1.42;;;16.90;83.70;;;;;;5091774;28;20396;-72
2023/03/25 14:08:28;;;;;;;5.65;1.30;;;16.90;81.40;;;;;;5085161;28;20050;-74
2023/03/25 14:11:14;;;;;;;3.75;1.00;;;16.90;87.00;;;;;;5081542;28;20028;-72
2023/03/25 14:13:47;;;;;;;3.33;1.33;;;16.90;82.60;;;;;;5083202;28;20101;-69
2023/03/25 14:16:21;;;;;;;6.43;1.13;;;17.00;85.20;;;;;;5082421;28;20043;-70
2023/03/25 14:18:55;;;;;;;5.88;1.70;;;16.80;85.00;;;;;;5101206;28;20423;-68
2023/03/25 14:21:32;;;;;;;4.53;1.08;;;16.60;83.50;;;;;;5082224;28;20024;-71
2023/03/25 14:24:01;;;;;;;5.38;1.08;;;16.60;87.00;;;;;;5081978;28;20074;-72
2023/03/25 14:26:27;;;;;;;7.20;1.15;;;16.60;84.30;;;;;;5082823;28;20510;-67
2023/03/25 14:28:56;;;;;;;7.90;2.03;;;16.60;82.80;;;;;;5083483;28;20032;-68
2023/03/25 14:31:22;;;;;;;3.97;1.20;;;16.60;86.00;;;;;;5080510;28;20039;-72
2023/03/25 14:34:02;;;;;;;2.97;1.20;;;16.80;86.10;;;;;;5082003;28;20036;-69
2023/03/25 14:36:40;;;;;;;4.35;1.63;;;16.80;86.10;;;;;;5081743;28;20507;-71
2023/03/25 14:39:33;;;;;;;5.40;1.23;;;16.80;82.50;;;;;;5080639;28;20547;-70
2023/03/25 14:42:01;;;;;;;4.13;1.38;;;16.70;82.20;;;;;;5082164;28;20793;-69
2023/03/25 14:44:31;;;;;;;3.67;1.25;;;16.70;82.30;;;;;;5080364;28;20032;-69
2023/03/25 14:47:19;;;;;;;5.07;1.30;;;16.80;82.90;;;;;;5081032;28;20030;-69
2023/03/25 14:50:19;;;;;;;1.75;0.93;;;16.80;83.40;;;;;;5082653;28;20116;-68
2023/03/25 14:52:49;;;;;;;6.88;1.63;;;16.80;82.00;;;;;;5081738;28;20043;-68
2023/03/25 14:55:19;;;;;;;5.82;1.10;;;16.80;82.50;;;;;;5080888;28;20075;-69
2023/03/25 14:57:46;;;;;;;2.55;1.02;;;16.80;84.00;;;;;;5081531;28;20020;-69
2023/03/25 15:00:25;;;;;;;4.18;1.38;;;16.70;82.40;;;;;;5083259;28;20016;-71
2023/03/25 15:03:03;;;;;;;3.85;1.00;;;16.70;82.60;;;;;;5080661;28;20498;-69
2023/03/25 15:05:31;;;;;;;45.53;3.67;;;16.70;81.90;;;;;;5078552;28;20032;-67
2023/03/25 15:07:58;;;;;;;13.00;1.85;;;16.70;82.80;;;;;;5082197;28;20784;-67